Airfield :
LOGIN :

Register | Disclaimer

   EN    FR    IT 

 










Legend :    VFR   Marginal VFR   IFR   Intensive IFR   Very Intensive IFR
Visi :
Ceiling :
>= 8 km
>= 3000ft
5 to 8 km
1000 to 3000 ft
1500m to 5 km
500 to 1000 ft
800 to 1500m
200 to 500 ft
< 800m
< 200 ft
Symbols :   Thunderstorms  Fog  Heavy snow  Heavy precipitations  Wind > 20 kt
SIGMETs :     Misc.  Thunderstorms  Icing  Turbulence  Mountain Waves  Volcanic Ashes







- Airport Elevation : 1106 ft
- Download approach charts


LFSO - Nancy / Ochey

CURRENT METAR :
  • 251930Z AUTO 24005KT 9999 SCT015 BKN029 BKN040 12/11 Q1016

EXPIRED METARs :
  • 251900Z AUTO 23008KT 9999 FEW033 BKN039 BKN060 12/11 Q1016
  • 251830Z AUTO 24007KT 9999 FEW023/// SCT039/// BKN056/// ///TCU 12/11 Q1015
  • 251800Z AUTO 24012KT 210V270 9999 -RA FEW019/// BKN029/// BKN048/// ///CB 13/11 Q1015
  • 251730Z AUTO 24008KT 9999 FEW030 SCT048 BKN060 14/09 Q1015
  • 251700Z AUTO 24010KT 9999 SCT030 SCT036 BKN054 15/10 Q1015

TAF TAF LFSO
Valid from the 25 at 15:00 until the 26 at 15:00 UTC


251400Z 2515/2615 26010KT 9999 BKN015 OVC025
TEMPO 2515/2520 26015G25KT 4500 -SHRA BKN010 OVC020TCU
FM261100 26010KT CAVOK
No reported NOTAMs for that airfield.



MET'MAP, your aeronautical weather chart ! - Copyright ORBIFLY December 2007 - Disclaimer

ORBIFLY MET'MAP TEAM :

Programming & Development : Alexandra Zaïnal
Concept & Development : Baudouin d'Aumeries
Co-Development & Prog : Marc-Olivier Méhu
Technical & hardware support : Manuel Goepfert

Contact : metmap@orbifly.com




SOURCES & CREDITS :

   NOAA